sensor_id;sensor_type;location;lat;lon;timestamp;P1;durP1;ratioP1;P2;durP2;ratioP2
68653;SDS011;55636;51.108;13.622;2022-07-25T00:00:38;4.60;;;4.20;;
68653;SDS011;55636;51.108;13.622;2022-07-25T00:01:42;4.88;;;4.38;;
68653;SDS011;55636;51.108;13.622;2022-07-25T00:02:46;5.40;;;4.43;;
68653;SDS011;55636;51.108;13.622;2022-07-25T00:03:49;5.45;;;4.55;;
68653;SDS011;55636;51.108;13.622;2022-07-25T00:04:52;5.40;;;4.78;;
68653;SDS011;55636;51.108;13.622;2022-07-25T00:05:54;4.53;;;4.13;;
68653;SDS011;55636;51.108;13.622;2022-07-25T00:06:56;5.75;;;4.78;;
68653;SDS011;55636;51.108;13.622;2022-07-25T00:07:59;5.38;;;4.88;;
68653;SDS011;55636;51.108;13.622;2022-07-25T00:09:01;6.72;;;4.53;;
68653;SDS011;55636;51.108;13.622;2022-07-25T00:10:03;5.22;;;4.70;;
68653;SDS011;55636;51.108;13.622;2022-07-25T00:11:06;7.25;;;4.97;;
68653;SDS011;55636;51.108;13.622;2022-07-25T00:12:08;5.43;;;4.93;;
68653;SDS011;55636;51.108;13.622;2022-07-25T00:13:12;6.97;;;4.90;;
68653;SDS011;55636;51.108;13.622;2022-07-25T00:14:14;5.72;;;5.00;;
68653;SDS011;55636;51.108;13.622;2022-07-25T00:15:16;5.93;;;4.80;;
68653;SDS011;55636;51.108;13.622;2022-07-25T00:16:19;5.88;;;5.32;;
68653;SDS011;55636;51.108;13.622;2022-07-25T00:17:21;5.60;;;5.10;;
68653;SDS011;55636;51.108;13.622;2022-07-25T00:18:23;5.40;;;4.88;;
68653;SDS011;55636;51.108;13.622;2022-07-25T00:19:26;5.97;;;5.40;;
68653;SDS011;55636;51.108;13.622;2022-07-25T00:20:28;5.80;;;5.28;;
68653;SDS011;55636;51.108;13.622;2022-07-25T00:21:30;5.80;;;5.00;;
68653;SDS011;55636;51.108;13.622;2022-07-25T00:22:33;6.32;;;5.20;;
68653;SDS011;55636;51.108;13.622;2022-07-25T00:23:38;6.30;;;5.70;;
68653;SDS011;55636;51.108;13.622;2022-07-25T00:24:40;6.93;;;5.97;;
68653;SDS011;55636;51.108;13.622;2022-07-25T00:25:43;7.07;;;5.80;;
68653;SDS011;55636;51.108;13.622;2022-07-25T00:26:45;6.43;;;5.78;;
68653;SDS011;55636;51.108;13.622;2022-07-25T00:27:47;7.05;;;6.00;;
68653;SDS011;55636;51.108;13.622;2022-07-25T00:28:49;6.38;;;5.82;;
68653;SDS011;55636;51.108;13.622;2022-07-25T00:29:51;7.43;;;6.70;;
68653;SDS011;55636;51.108;13.622;2022-07-25T00:30:54;8.68;;;7.05;;
68653;SDS011;55636;51.108;13.622;2022-07-25T00:31:56;7.95;;;7.10;;
68653;SDS011;55636;51.108;13.622;2022-07-25T00:32:58;7.63;;;6.68;;
68653;SDS011;55636;51.108;13.622;2022-07-25T00:34:01;7.97;;;7.18;;
68653;SDS011;55636;51.108;13.622;2022-07-25T00:35:05;8.43;;;7.63;;
68653;SDS011;55636;51.108;13.622;2022-07-25T00:36:08;9.50;;;8.50;;
68653;SDS011;55636;51.108;13.622;2022-07-25T00:37:13;9.27;;;8.30;;
68653;SDS011;55636;51.108;13.622;2022-07-25T00:38:17;11.43;;;8.93;;
68653;SDS011;55636;51.108;13.622;2022-07-25T00:39:19;11.07;;;8.93;;
68653;SDS011;55636;51.108;13.622;2022-07-25T00:40:21;11.73;;;10.48;;
68653;SDS011;55636;51.108;13.622;2022-07-25T00:41:24;12.35;;;11.15;;
68653;SDS011;55636;51.108;13.622;2022-07-25T00:42:26;13.05;;;10.68;;
68653;SDS011;55636;51.108;13.622;2022-07-25T00:43:28;12.30;;;11.00;;
68653;SDS011;55636;51.108;13.622;2022-07-25T00:44:31;13.27;;;11.57;;
68653;SDS011;55636;51.108;13.622;2022-07-25T00:45:34;13.70;;;12.23;;
68653;SDS011;55636;51.108;13.622;2022-07-25T00:46:36;14.13;;;12.63;;
68653;SDS011;55636;51.108;13.622;2022-07-25T00:47:40;15.38;;;13.20;;
68653;SDS011;55636;51.108;13.622;2022-07-25T00:48:42;15.18;;;13.57;;
68653;SDS011;55636;51.108;13.622;2022-07-25T00:49:45;16.30;;;13.70;;
68653;SDS011;55636;51.108;13.622;2022-07-25T00:50:47;18.15;;;14.60;;
68653;SDS011;55636;51.108;13.622;2022-07-25T00:51:50;16.27;;;14.43;;
68653;SDS011;55636;51.108;13.622;2022-07-25T00:52:54;16.17;;;14.40;;
68653;SDS011;55636;51.108;13.622;2022-07-25T00:53:56;19.42;;;15.88;;
68653;SDS011;55636;51.108;13.622;2022-07-25T00:54:58;18.05;;;16.13;;
68653;SDS011;55636;51.108;13.622;2022-07-25T00:56:02;20.48;;;16.05;;
68653;SDS011;55636;51.108;13.622;2022-07-25T00:57:05;19.20;;;17.10;;
68653;SDS011;55636;51.108;13.622;2022-07-25T00:58:07;19.45;;;17.20;;
68653;SDS011;55636;51.108;13.622;2022-07-25T00:59:09;22.05;;;18.75;;
68653;SDS011;55636;51.108;13.622;2022-07-25T01:00:12;20.92;;;18.73;;
68653;SDS011;55636;51.108;13.622;2022-07-25T01:01:16;24.58;;;20.75;;
68653;SDS011;55636;51.108;13.622;2022-07-25T01:02:20;23.08;;;19.83;;
68653;SDS011;55636;51.108;13.622;2022-07-25T01:03:22;23.17;;;20.20;;
68653;SDS011;55636;51.108;13.622;2022-07-25T01:04:25;23.30;;;20.60;;
68653;SDS011;55636;51.108;13.622;2022-07-25T01:05:27;25.27;;;22.55;;
68653;SDS011;55636;51.108;13.622;2022-07-25T01:06:29;25.35;;;22.27;;
68653;SDS011;55636;51.108;13.622;2022-07-25T01:07:32;27.20;;;23.38;;
68653;SDS011;55636;51.108;13.622;2022-07-25T01:08:36;28.85;;;23.05;;
68653;SDS011;55636;51.108;13.622;2022-07-25T01:09:38;26.52;;;23.67;;
68653;SDS011;55636;51.108;13.622;2022-07-25T01:10:44;27.52;;;23.83;;
68653;SDS011;55636;51.108;13.622;2022-07-25T01:11:47;28.88;;;24.33;;
68653;SDS011;55636;51.108;13.622;2022-07-25T01:12:51;32.00;;;25.90;;
68653;SDS011;55636;51.108;13.622;2022-07-25T01:13:54;30.83;;;25.35;;
68653;SDS011;55636;51.108;13.622;2022-07-25T01:14:57;31.92;;;26.05;;
68653;SDS011;55636;51.108;13.622;2022-07-25T01:15:59;32.17;;;26.15;;
68653;SDS011;55636;51.108;13.622;2022-07-25T01:17:01;30.00;;;26.80;;
68653;SDS011;55636;51.108;13.622;2022-07-25T01:18:04;31.73;;;26.98;;
68653;SDS011;55636;51.108;13.622;2022-07-25T01:19:06;31.85;;;28.27;;
68653;SDS011;55636;51.108;13.622;2022-07-25T01:20:15;33.78;;;28.77;;
68653;SDS011;55636;51.108;13.622;2022-07-25T01:21:19;32.85;;;28.90;;
68653;SDS011;55636;51.108;13.622;2022-07-25T01:22:21;34.55;;;29.25;;
68653;SDS011;55636;51.108;13.622;2022-07-25T01:23:23;33.10;;;27.88;;
68653;SDS011;55636;51.108;13.622;2022-07-25T01:24:25;33.25;;;28.88;;
68653;SDS011;55636;51.108;13.622;2022-07-25T01:25:28;32.85;;;29.23;;
68653;SDS011;55636;51.108;13.622;2022-07-25T01:26:30;34.78;;;29.63;;
68653;SDS011;55636;51.108;13.622;2022-07-25T01:27:32;36.25;;;31.02;;
68653;SDS011;55636;51.108;13.622;2022-07-25T01:28:37;36.17;;;30.10;;
68653;SDS011;55636;51.108;13.622;2022-07-25T01:29:40;36.72;;;31.23;;
68653;SDS011;55636;51.108;13.622;2022-07-25T01:30:42;36.05;;;30.85;;
68653;SDS011;55636;51.108;13.622;2022-07-25T01:31:45;34.97;;;31.17;;
68653;SDS011;55636;51.108;13.622;2022-07-25T01:32:47;38.80;;;31.92;;
68653;SDS011;55636;51.108;13.622;2022-07-25T01:33:49;36.75;;;32.25;;
68653;SDS011;55636;51.108;13.622;2022-07-25T01:34:51;37.97;;;33.88;;
68653;SDS011;55636;51.108;13.622;2022-07-25T01:35:54;38.72;;;34.53;;
68653;SDS011;55636;51.108;13.622;2022-07-25T01:36:56;40.55;;;35.35;;
68653;SDS011;55636;51.108;13.622;2022-07-25T01:37:58;39.05;;;34.30;;
68653;SDS011;55636;51.108;13.622;2022-07-25T01:39:00;40.60;;;34.33;;
68653;SDS011;55636;51.108;13.622;2022-07-25T01:40:05;39.58;;;33.97;;
68653;SDS011;55636;51.108;13.622;2022-07-25T01:41:09;40.80;;;34.75;;
68653;SDS011;55636;51.108;13.622;2022-07-25T01:42:23;42.05;;;34.50;;
68653;SDS011;55636;51.108;13.622;2022-07-25T01:43:25;40.78;;;34.90;;
68653;SDS011;55636;51.108;13.622;2022-07-25T01:44:28;45.17;;;35.60;;
68653;SDS011;55636;51.108;13.622;2022-07-25T01:45:30;41.60;;;35.78;;
68653;SDS011;55636;51.108;13.622;2022-07-25T01:46:32;43.88;;;37.53;;
68653;SDS011;55636;51.108;13.622;2022-07-25T01:47:35;43.40;;;36.58;;
68653;SDS011;55636;51.108;13.622;2022-07-25T01:48:37;42.20;;;36.80;;
68653;SDS011;55636;51.108;13.622;2022-07-25T01:49:40;44.88;;;38.05;;
68653;SDS011;55636;51.108;13.622;2022-07-25T01:50:43;45.88;;;37.60;;
68653;SDS011;55636;51.108;13.622;2022-07-25T01:51:45;44.65;;;37.90;;
68653;SDS011;55636;51.108;13.622;2022-07-25T01:52:49;45.28;;;37.70;;
68653;SDS011;55636;51.108;13.622;2022-07-25T01:53:51;46.75;;;38.60;;
68653;SDS011;55636;51.108;13.622;2022-07-25T01:54:54;42.97;;;37.63;;
68653;SDS011;55636;51.108;13.622;2022-07-25T01:55:57;46.13;;;39.70;;
68653;SDS011;55636;51.108;13.622;2022-07-25T01:57:03;46.45;;;38.80;;
68653;SDS011;55636;51.108;13.622;2022-07-25T01:58:06;43.60;;;38.42;;
68653;SDS011;55636;51.108;13.622;2022-07-25T01:59:09;44.97;;;39.08;;
68653;SDS011;55636;51.108;13.622;2022-07-25T02:00:12;44.72;;;39.42;;
68653;SDS011;55636;51.108;13.622;2022-07-25T02:01:15;47.60;;;39.72;;
68653;SDS011;55636;51.108;13.622;2022-07-25T02:02:20;47.80;;;40.60;;
68653;SDS011;55636;51.108;13.622;2022-07-25T02:03:22;48.90;;;41.08;;
68653;SDS011;55636;51.108;13.622;2022-07-25T02:04:33;47.67;;;40.33;;
68653;SDS011;55636;51.108;13.622;2022-07-25T02:05:36;44.70;;;39.45;;
68653;SDS011;55636;51.108;13.622;2022-07-25T02:06:38;48.40;;;41.15;;
68653;SDS011;55636;51.108;13.622;2022-07-25T02:07:42;48.17;;;41.05;;
68653;SDS011;55636;51.108;13.622;2022-07-25T02:08:44;50.75;;;42.03;;
68653;SDS011;55636;51.108;13.622;2022-07-25T02:09:46;48.10;;;41.15;;
68653;SDS011;55636;51.108;13.622;2022-07-25T02:10:57;48.03;;;40.30;;
68653;SDS011;55636;51.108;13.622;2022-07-25T02:12:00;48.40;;;41.38;;
68653;SDS011;55636;51.108;13.622;2022-07-25T02:13:02;46.00;;;40.97;;
68653;SDS011;55636;51.108;13.622;2022-07-25T02:14:05;51.55;;;42.05;;
68653;SDS011;55636;51.108;13.622;2022-07-25T02:15:08;49.10;;;42.42;;
68653;SDS011;55636;51.108;13.622;2022-07-25T02:16:12;51.90;;;42.85;;
68653;SDS011;55636;51.108;13.622;2022-07-25T02:17:15;50.88;;;43.17;;
68653;SDS011;55636;51.108;13.622;2022-07-25T02:18:17;50.58;;;44.08;;
68653;SDS011;55636;51.108;13.622;2022-07-25T02:19:22;54.30;;;44.00;;
68653;SDS011;55636;51.108;13.622;2022-07-25T02:20:24;53.67;;;44.20;;
68653;SDS011;55636;51.108;13.622;2022-07-25T02:21:26;53.28;;;44.30;;
68653;SDS011;55636;51.108;13.622;2022-07-25T02:22:28;58.63;;;44.20;;
68653;SDS011;55636;51.108;13.622;2022-07-25T02:23:31;53.03;;;45.78;;
68653;SDS011;55636;51.108;13.622;2022-07-25T02:24:33;55.38;;;45.00;;
68653;SDS011;55636;51.108;13.622;2022-07-25T02:25:37;51.55;;;45.95;;
68653;SDS011;55636;51.108;13.622;2022-07-25T02:26:40;55.97;;;46.35;;
68653;SDS011;55636;51.108;13.622;2022-07-25T02:27:42;54.15;;;46.13;;
68653;SDS011;55636;51.108;13.622;2022-07-25T02:28:45;52.97;;;46.40;;
68653;SDS011;55636;51.108;13.622;2022-07-25T02:29:50;56.63;;;46.45;;
68653;SDS011;55636;51.108;13.622;2022-07-25T02:30:52;58.45;;;45.80;;
68653;SDS011;55636;51.108;13.622;2022-07-25T02:31:54;51.70;;;44.72;;
68653;SDS011;55636;51.108;13.622;2022-07-25T02:32:57;54.13;;;47.50;;
68653;SDS011;55636;51.108;13.622;2022-07-25T02:33:59;57.63;;;47.38;;
68653;SDS011;55636;51.108;13.622;2022-07-25T02:35:02;57.30;;;46.75;;
68653;SDS011;55636;51.108;13.622;2022-07-25T02:36:13;53.88;;;46.92;;
68653;SDS011;55636;51.108;13.622;2022-07-25T02:37:16;57.58;;;47.88;;
68653;SDS011;55636;51.108;13.622;2022-07-25T02:38:18;55.42;;;48.67;;
68653;SDS011;55636;51.108;13.622;2022-07-25T02:39:20;58.30;;;49.25;;
68653;SDS011;55636;51.108;13.622;2022-07-25T02:40:22;58.92;;;49.08;;
68653;SDS011;55636;51.108;13.622;2022-07-25T02:41:25;57.88;;;48.95;;
68653;SDS011;55636;51.108;13.622;2022-07-25T02:42:27;55.15;;;48.78;;
68653;SDS011;55636;51.108;13.622;2022-07-25T02:43:29;55.92;;;48.35;;
68653;SDS011;55636;51.108;13.622;2022-07-25T02:44:32;59.30;;;50.10;;
68653;SDS011;55636;51.108;13.622;2022-07-25T02:45:34;61.08;;;51.42;;
68653;SDS011;55636;51.108;13.622;2022-07-25T02:46:36;60.25;;;50.53;;
68653;SDS011;55636;51.108;13.622;2022-07-25T02:47:39;66.57;;;51.58;;
68653;SDS011;55636;51.108;13.622;2022-07-25T02:48:41;59.15;;;50.17;;
68653;SDS011;55636;51.108;13.622;2022-07-25T02:49:44;63.90;;;51.22;;
68653;SDS011;55636;51.108;13.622;2022-07-25T02:50:46;60.80;;;50.17;;
68653;SDS011;55636;51.108;13.622;2022-07-25T02:51:48;59.33;;;50.25;;
68653;SDS011;55636;51.108;13.622;2022-07-25T02:52:50;58.00;;;51.67;;
68653;SDS011;55636;51.108;13.622;2022-07-25T02:53:53;61.92;;;51.83;;
68653;SDS011;55636;51.108;13.622;2022-07-25T02:54:59;65.40;;;52.22;;
68653;SDS011;55636;51.108;13.622;2022-07-25T02:56:04;65.32;;;51.53;;
68653;SDS011;55636;51.108;13.622;2022-07-25T02:57:06;60.38;;;50.90;;
68653;SDS011;55636;51.108;13.622;2022-07-25T02:58:09;61.83;;;51.50;;
68653;SDS011;55636;51.108;13.622;2022-07-25T02:59:12;65.78;;;52.75;;
68653;SDS011;55636;51.108;13.622;2022-07-25T03:00:14;63.13;;;52.28;;
68653;SDS011;55636;51.108;13.622;2022-07-25T03:01:17;62.53;;;52.58;;
68653;SDS011;55636;51.108;13.622;2022-07-25T03:02:19;58.50;;;51.58;;
68653;SDS011;55636;51.108;13.622;2022-07-25T03:03:21;66.00;;;53.67;;
68653;SDS011;55636;51.108;13.622;2022-07-25T03:04:24;64.85;;;53.08;;
68653;SDS011;55636;51.108;13.622;2022-07-25T03:05:26;63.95;;;53.20;;
68653;SDS011;55636;51.108;13.622;2022-07-25T03:06:28;71.50;;;54.80;;
68653;SDS011;55636;51.108;13.622;2022-07-25T03:07:31;63.38;;;53.05;;
68653;SDS011;55636;51.108;13.622;2022-07-25T03:08:33;64.32;;;53.42;;
68653;SDS011;55636;51.108;13.622;2022-07-25T03:09:37;64.70;;;54.10;;
68653;SDS011;55636;51.108;13.622;2022-07-25T03:10:41;63.60;;;53.20;;
68653;SDS011;55636;51.108;13.622;2022-07-25T03:11:44;61.80;;;54.38;;
68653;SDS011;55636;51.108;13.622;2022-07-25T03:12:46;67.10;;;54.35;;
68653;SDS011;55636;51.108;13.622;2022-07-25T03:13:48;65.03;;;53.05;;
68653;SDS011;55636;51.108;13.622;2022-07-25T03:14:50;69.40;;;55.53;;
68653;SDS011;55636;51.108;13.622;2022-07-25T03:15:53;66.97;;;54.67;;
68653;SDS011;55636;51.108;13.622;2022-07-25T03:16:57;66.57;;;54.95;;
68653;SDS011;55636;51.108;13.622;2022-07-25T03:17:59;64.35;;;53.70;;
68653;SDS011;55636;51.108;13.622;2022-07-25T03:19:02;64.60;;;54.50;;
68653;SDS011;55636;51.108;13.622;2022-07-25T03:20:04;63.67;;;54.05;;
68653;SDS011;55636;51.108;13.622;2022-07-25T03:21:07;66.95;;;54.80;;
68653;SDS011;55636;51.108;13.622;2022-07-25T03:22:10;64.07;;;54.53;;
68653;SDS011;55636;51.108;13.622;2022-07-25T03:23:12;63.50;;;54.60;;
68653;SDS011;55636;51.108;13.622;2022-07-25T03:24:14;67.05;;;55.30;;
68653;SDS011;55636;51.108;13.622;2022-07-25T03:25:18;63.85;;;55.97;;
68653;SDS011;55636;51.108;13.622;2022-07-25T03:26:22;63.53;;;54.40;;
68653;SDS011;55636;51.108;13.622;2022-07-25T03:27:25;62.60;;;55.10;;
68653;SDS011;55636;51.108;13.622;2022-07-25T03:28:28;64.22;;;53.60;;
68653;SDS011;55636;51.108;13.622;2022-07-25T03:29:30;61.92;;;54.03;;
68653;SDS011;55636;51.108;13.622;2022-07-25T03:30:33;61.63;;;53.58;;
68653;SDS011;55636;51.108;13.622;2022-07-25T03:31:35;66.20;;;54.08;;
68653;SDS011;55636;51.108;13.622;2022-07-25T03:32:37;68.70;;;55.33;;
68653;SDS011;55636;51.108;13.622;2022-07-25T03:33:40;66.70;;;54.55;;
68653;SDS011;55636;51.108;13.622;2022-07-25T03:34:43;65.90;;;54.92;;
68653;SDS011;55636;51.108;13.622;2022-07-25T03:35:45;65.50;;;54.45;;
68653;SDS011;55636;51.108;13.622;2022-07-25T03:36:47;67.35;;;55.35;;
68653;SDS011;55636;51.108;13.622;2022-07-25T03:37:50;67.47;;;55.70;;
68653;SDS011;55636;51.108;13.622;2022-07-25T03:38:52;68.22;;;55.55;;
68653;SDS011;55636;51.108;13.622;2022-07-25T03:39:56;68.30;;;55.35;;
68653;SDS011;55636;51.108;13.622;2022-07-25T03:40:59;67.85;;;54.97;;
68653;SDS011;55636;51.108;13.622;2022-07-25T03:42:01;66.97;;;56.13;;
68653;SDS011;55636;51.108;13.622;2022-07-25T03:43:03;67.43;;;56.80;;
68653;SDS011;55636;51.108;13.622;2022-07-25T03:44:05;72.13;;;56.13;;
68653;SDS011;55636;51.108;13.622;2022-07-25T03:45:08;69.63;;;56.65;;
68653;SDS011;55636;51.108;13.622;2022-07-25T03:46:10;65.90;;;56.58;;
68653;SDS011;55636;51.108;13.622;2022-07-25T03:47:15;69.25;;;57.17;;
68653;SDS011;55636;51.108;13.622;2022-07-25T03:48:21;67.55;;;56.92;;
68653;SDS011;55636;51.108;13.622;2022-07-25T03:49:25;69.63;;;57.47;;
68653;SDS011;55636;51.108;13.622;2022-07-25T03:50:28;67.28;;;56.47;;
68653;SDS011;55636;51.108;13.622;2022-07-25T03:51:31;68.15;;;56.75;;
68653;SDS011;55636;51.108;13.622;2022-07-25T03:52:33;67.95;;;57.05;;
68653;SDS011;55636;51.108;13.622;2022-07-25T03:53:35;66.38;;;55.65;;
68653;SDS011;55636;51.108;13.622;2022-07-25T03:54:57;68.32;;;56.80;;
68653;SDS011;55636;51.108;13.622;2022-07-25T03:55:59;69.35;;;56.65;;
68653;SDS011;55636;51.108;13.622;2022-07-25T03:57:02;70.85;;;57.92;;
68653;SDS011;55636;51.108;13.622;2022-07-25T03:58:04;71.40;;;56.40;;
68653;SDS011;55636;51.108;13.622;2022-07-25T03:59:07;69.35;;;56.50;;
68653;SDS011;55636;51.108;13.622;2022-07-25T04:00:10;69.43;;;57.38;;
68653;SDS011;55636;51.108;13.622;2022-07-25T04:01:13;72.35;;;58.45;;
68653;SDS011;55636;51.108;13.622;2022-07-25T04:02:15;70.07;;;57.58;;
68653;SDS011;55636;51.108;13.622;2022-07-25T04:03:18;69.88;;;57.80;;
68653;SDS011;55636;51.108;13.622;2022-07-25T04:04:20;72.35;;;58.35;;
68653;SDS011;55636;51.108;13.622;2022-07-25T04:05:22;69.80;;;59.13;;
68653;SDS011;55636;51.108;13.622;2022-07-25T04:06:25;72.65;;;59.95;;
68653;SDS011;55636;51.108;13.622;2022-07-25T04:07:27;70.97;;;58.55;;
68653;SDS011;55636;51.108;13.622;2022-07-25T04:08:29;71.90;;;57.63;;
68653;SDS011;55636;51.108;13.622;2022-07-25T04:09:34;68.00;;;59.40;;
68653;SDS011;55636;51.108;13.622;2022-07-25T04:10:36;71.90;;;58.22;;
68653;SDS011;55636;51.108;13.622;2022-07-25T04:11:38;66.82;;;57.95;;
68653;SDS011;55636;51.108;13.622;2022-07-25T04:12:40;73.55;;;59.35;;
68653;SDS011;55636;51.108;13.622;2022-07-25T04:13:43;70.32;;;60.42;;
68653;SDS011;55636;51.108;13.622;2022-07-25T04:14:45;69.50;;;58.58;;
68653;SDS011;55636;51.108;13.622;2022-07-25T04:15:47;73.10;;;59.30;;
68653;SDS011;55636;51.108;13.622;2022-07-25T04:16:49;72.22;;;60.45;;
68653;SDS011;55636;51.108;13.622;2022-07-25T04:17:54;74.53;;;59.92;;
68653;SDS011;55636;51.108;13.622;2022-07-25T04:18:56;74.65;;;60.05;;
68653;SDS011;55636;51.108;13.622;2022-07-25T04:20:01;71.45;;;59.58;;
68653;SDS011;55636;51.108;13.622;2022-07-25T04:21:06;74.65;;;60.55;;
68653;SDS011;55636;51.108;13.622;2022-07-25T04:22:10;75.38;;;61.13;;
68653;SDS011;55636;51.108;13.622;2022-07-25T04:23:15;77.55;;;62.08;;
68653;SDS011;55636;51.108;13.622;2022-07-25T04:24:17;75.22;;;62.30;;
68653;SDS011;55636;51.108;13.622;2022-07-25T04:25:19;78.47;;;62.63;;
68653;SDS011;55636;51.108;13.622;2022-07-25T04:26:21;72.60;;;60.65;;
68653;SDS011;55636;51.108;13.622;2022-07-25T04:27:24;77.35;;;61.65;;
68653;SDS011;55636;51.108;13.622;2022-07-25T04:28:26;78.30;;;62.42;;
68653;SDS011;55636;51.108;13.622;2022-07-25T04:29:29;75.28;;;61.03;;
68653;SDS011;55636;51.108;13.622;2022-07-25T04:30:31;74.57;;;61.58;;
68653;SDS011;55636;51.108;13.622;2022-07-25T04:31:33;74.10;;;61.25;;
68653;SDS011;55636;51.108;13.622;2022-07-25T04:32:36;76.47;;;63.13;;
68653;SDS011;55636;51.108;13.622;2022-07-25T04:33:38;75.45;;;63.60;;
68653;SDS011;55636;51.108;13.622;2022-07-25T04:34:41;77.55;;;63.15;;
68653;SDS011;55636;51.108;13.622;2022-07-25T04:35:45;80.53;;;65.10;;
68653;SDS011;55636;51.108;13.622;2022-07-25T04:36:48;73.78;;;62.70;;
68653;SDS011;55636;51.108;13.622;2022-07-25T04:37:50;77.13;;;63.00;;
68653;SDS011;55636;51.108;13.622;2022-07-25T04:38:52;73.22;;;61.08;;
68653;SDS011;55636;51.108;13.622;2022-07-25T04:39:54;76.57;;;61.47;;
68653;SDS011;55636;51.108;13.622;2022-07-25T04:40:57;75.35;;;63.03;;
68653;SDS011;55636;51.108;13.622;2022-07-25T04:41:59;79.30;;;63.50;;
68653;SDS011;55636;51.108;13.622;2022-07-25T04:43:02;78.13;;;62.15;;
68653;SDS011;55636;51.108;13.622;2022-07-25T04:44:05;75.85;;;64.22;;
68653;SDS011;55636;51.108;13.622;2022-07-25T04:45:09;78.32;;;63.22;;
68653;SDS011;55636;51.108;13.622;2022-07-25T04:46:16;76.20;;;64.38;;
68653;SDS011;55636;51.108;13.622;2022-07-25T04:47:19;77.45;;;62.97;;
68653;SDS011;55636;51.108;13.622;2022-07-25T04:48:22;78.35;;;64.30;;
68653;SDS011;55636;51.108;13.622;2022-07-25T04:49:24;78.05;;;63.95;;
68653;SDS011;55636;51.108;13.622;2022-07-25T04:50:26;78.75;;;62.70;;
68653;SDS011;55636;51.108;13.622;2022-07-25T04:51:30;75.25;;;62.28;;
68653;SDS011;55636;51.108;13.622;2022-07-25T04:52:32;80.25;;;64.72;;
68653;SDS011;55636;51.108;13.622;2022-07-25T04:53:34;79.70;;;64.30;;
68653;SDS011;55636;51.108;13.622;2022-07-25T04:54:37;77.30;;;61.75;;
68653;SDS011;55636;51.108;13.622;2022-07-25T04:55:39;81.35;;;63.83;;
68653;SDS011;55636;51.108;13.622;2022-07-25T04:56:41;74.18;;;63.08;;
68653;SDS011;55636;51.108;13.622;2022-07-25T04:57:43;79.35;;;63.25;;
68653;SDS011;55636;51.108;13.622;2022-07-25T04:58:47;77.10;;;62.70;;
68653;SDS011;55636;51.108;13.622;2022-07-25T04:59:50;83.38;;;63.67;;
68653;SDS011;55636;51.108;13.622;2022-07-25T05:00:52;72.72;;;62.10;;
68653;SDS011;55636;51.108;13.622;2022-07-25T05:01:55;77.15;;;62.55;;
68653;SDS011;55636;51.108;13.622;2022-07-25T05:02:57;74.20;;;62.97;;
68653;SDS011;55636;51.108;13.622;2022-07-25T05:04:00;76.45;;;61.88;;
68653;SDS011;55636;51.108;13.622;2022-07-25T05:05:02;76.85;;;64.55;;
68653;SDS011;55636;51.108;13.622;2022-07-25T05:06:05;72.57;;;61.10;;
68653;SDS011;55636;51.108;13.622;2022-07-25T05:07:07;79.40;;;64.43;;
68653;SDS011;55636;51.108;13.622;2022-07-25T05:08:10;75.60;;;62.85;;
68653;SDS011;55636;51.108;13.622;2022-07-25T05:09:12;77.03;;;62.30;;
68653;SDS011;55636;51.108;13.622;2022-07-25T05:10:14;76.40;;;62.20;;
68653;SDS011;55636;51.108;13.622;2022-07-25T05:11:16;75.80;;;59.90;;
68653;SDS011;55636;51.108;13.622;2022-07-25T05:12:19;78.53;;;62.10;;
68653;SDS011;55636;51.108;13.622;2022-07-25T05:13:21;71.80;;;60.28;;
68653;SDS011;55636;51.108;13.622;2022-07-25T05:14:23;76.03;;;60.67;;
68653;SDS011;55636;51.108;13.622;2022-07-25T05:15:26;72.57;;;59.30;;
68653;SDS011;55636;51.108;13.622;2022-07-25T05:16:28;75.80;;;59.78;;
68653;SDS011;55636;51.108;13.622;2022-07-25T05:17:30;73.18;;;61.33;;
68653;SDS011;55636;51.108;13.622;2022-07-25T05:18:33;72.97;;;60.85;;
68653;SDS011;55636;51.108;13.622;2022-07-25T05:19:37;74.53;;;60.35;;
68653;SDS011;55636;51.108;13.622;2022-07-25T05:20:40;73.25;;;58.95;;
68653;SDS011;55636;51.108;13.622;2022-07-25T05:21:42;74.65;;;60.08;;
68653;SDS011;55636;51.108;13.622;2022-07-25T05:22:44;68.10;;;58.90;;
68653;SDS011;55636;51.108;13.622;2022-07-25T05:23:47;68.43;;;58.38;;
68653;SDS011;55636;51.108;13.622;2022-07-25T05:24:49;71.63;;;58.20;;
68653;SDS011;55636;51.108;13.622;2022-07-25T05:25:54;69.75;;;57.47;;
68653;SDS011;55636;51.108;13.622;2022-07-25T05:26:56;67.88;;;58.42;;
68653;SDS011;55636;51.108;13.622;2022-07-25T05:27:59;67.18;;;58.60;;
68653;SDS011;55636;51.108;13.622;2022-07-25T05:29:02;67.20;;;57.47;;
68653;SDS011;55636;51.108;13.622;2022-07-25T05:30:05;68.50;;;58.08;;
68653;SDS011;55636;51.108;13.622;2022-07-25T05:31:08;71.90;;;58.67;;
68653;SDS011;55636;51.108;13.622;2022-07-25T05:32:11;71.45;;;58.30;;
68653;SDS011;55636;51.108;13.622;2022-07-25T05:33:13;67.40;;;56.85;;
68653;SDS011;55636;51.108;13.622;2022-07-25T05:34:15;69.75;;;57.38;;
68653;SDS011;55636;51.108;13.622;2022-07-25T05:35:18;68.55;;;58.03;;
68653;SDS011;55636;51.108;13.622;2022-07-25T05:36:20;70.03;;;58.00;;
68653;SDS011;55636;51.108;13.622;2022-07-25T05:37:22;71.80;;;57.22;;
68653;SDS011;55636;51.108;13.622;2022-07-25T05:38:24;67.40;;;57.67;;
68653;SDS011;55636;51.108;13.622;2022-07-25T05:39:27;65.32;;;56.50;;
68653;SDS011;55636;51.108;13.622;2022-07-25T05:40:29;68.25;;;57.28;;
68653;SDS011;55636;51.108;13.622;2022-07-25T05:41:31;66.53;;;56.38;;
68653;SDS011;55636;51.108;13.622;2022-07-25T05:42:33;68.32;;;56.65;;
68653;SDS011;55636;51.108;13.622;2022-07-25T05:43:37;67.50;;;55.67;;
68653;SDS011;55636;51.108;13.622;2022-07-25T05:44:40;67.47;;;55.92;;
68653;SDS011;55636;51.108;13.622;2022-07-25T05:45:42;64.32;;;54.55;;
68653;SDS011;55636;51.108;13.622;2022-07-25T05:46:45;63.70;;;54.45;;
68653;SDS011;55636;51.108;13.622;2022-07-25T05:47:47;67.47;;;56.22;;
68653;SDS011;55636;51.108;13.622;2022-07-25T05:48:49;65.25;;;54.33;;
68653;SDS011;55636;51.108;13.622;2022-07-25T05:49:53;63.97;;;53.85;;
68653;SDS011;55636;51.108;13.622;2022-07-25T05:50:55;64.18;;;54.47;;
68653;SDS011;55636;51.108;13.622;2022-07-25T05:51:58;65.70;;;55.67;;
68653;SDS011;55636;51.108;13.622;2022-07-25T05:53:00;61.25;;;53.90;;
68653;SDS011;55636;51.108;13.622;2022-07-25T05:54:03;64.57;;;53.60;;
68653;SDS011;55636;51.108;13.622;2022-07-25T05:55:05;63.67;;;53.17;;
68653;SDS011;55636;51.108;13.622;2022-07-25T05:56:08;64.25;;;52.88;;
68653;SDS011;55636;51.108;13.622;2022-07-25T05:57:11;62.42;;;52.78;;
68653;SDS011;55636;51.108;13.622;2022-07-25T05:58:14;61.28;;;51.25;;
68653;SDS011;55636;51.108;13.622;2022-07-25T05:59:16;59.13;;;51.20;;
68653;SDS011;55636;51.108;13.622;2022-07-25T06:00:18;62.67;;;52.83;;
68653;SDS011;55636;51.108;13.622;2022-07-25T06:01:21;61.88;;;51.83;;
68653;SDS011;55636;51.108;13.622;2022-07-25T06:02:23;64.47;;;52.10;;
68653;SDS011;55636;51.108;13.622;2022-07-25T06:03:26;60.22;;;51.22;;